Time;durP1;ratioP1;P1;durP2;ratioP2;P2;SDS_P1;SDS_P2;PMS_P1;PMS_P2;Temp;Humidity;BMP_temperature;BMP_pressure;BME280_temperature;BME280_humidity;BME280_pressure;Samples;Min_cycle;Max_cycle;Signal;HPM_P1;HPM_P2
2021/12/09 00:00:31;;;;;;;5.85;2.88;;;;;;;6.57;58.97;100127.50;4914043;28;123730;-64
2021/12/09 00:03:05;;;;;;;5.68;2.90;;;;;;;6.56;59.38;100126.66;4920555;28;113511;-64
2021/12/09 00:05:34;;;;;;;5.60;2.67;;;;;;;6.57;59.04;100138.03;4916327;28;115720;-64
2021/12/09 00:08:04;;;;;;;7.80;3.28;;;;;;;6.57;59.51;100138.03;4922015;28;124097;-64
2021/12/09 00:10:33;;;;;;;7.18;2.72;;;;;;;6.56;59.30;100131.09;4918631;28;124541;-64
2021/12/09 00:13:02;;;;;;;6.88;3.05;;;;;;;6.56;59.43;100125.81;4919849;28;114124;-64
2021/12/09 00:15:30;;;;;;;7.43;3.20;;;;;;;6.54;58.97;100123.25;4917034;28;114037;-64
2021/12/09 00:17:57;;;;;;;5.78;2.70;;;;;;;6.53;59.15;100120.66;4932131;28;124710;-64
2021/12/09 00:20:24;;;;;;;5.35;3.03;;;;;;;6.52;59.18;100129.50;4914425;28;123985;-64
2021/12/09 00:22:51;;;;;;;5.53;2.78;;;;;;;6.53;59.19;100125.94;4929110;28;113733;-64
2021/12/09 00:25:18;;;;;;;8.00;3.22;;;;;;;6.51;59.49;100122.50;4914083;28;114150;-64
2021/12/09 00:27:46;;;;;;;7.60;2.95;;;;;;;6.50;59.28;100123.41;4916537;28;124145;-64
2021/12/09 00:30:13;;;;;;;6.93;2.85;;;;;;;6.49;59.41;100124.34;4924335;28;122999;-64
2021/12/09 00:32:41;;;;;;;6.95;2.58;;;;;;;6.47;59.44;100118.28;4911177;28;114241;-64
2021/12/09 00:35:09;;;;;;;7.82;2.85;;;;;;;6.46;59.43;100119.19;4910575;28;114055;-64
2021/12/09 00:37:40;;;;;;;8.18;3.17;;;;;;;6.43;59.40;100123.66;4910677;28;124112;-64
2021/12/09 00:40:08;;;;;;;7.50;3.25;;;;;;;6.42;59.37;100119.34;4912706;28;124470;-64
2021/12/09 00:42:36;;;;;;;7.88;3.05;;;;;;;6.41;59.29;100125.50;4922481;28;115624;-65
2021/12/09 00:45:04;;;;;;;6.72;2.70;;;;;;;6.39;59.35;100124.72;4926781;28;115208;-65
2021/12/09 00:47:31;;;;;;;7.18;3.13;;;;;;;6.38;59.21;100117.72;4912966;28;124048;-65
2021/12/09 00:49:58;;;;;;;7.82;2.80;;;;;;;6.36;59.35;100116.94;4916432;28;122405;-65
2021/12/09 00:52:27;;;;;;;6.65;2.90;;;;;;;6.36;59.40;100118.72;4913532;28;114376;-64
2021/12/09 00:54:56;;;;;;;7.45;3.53;;;;;;;6.34;59.28;100126.66;4914774;28;114060;-64
2021/12/09 00:57:24;;;;;;;7.07;2.80;;;;;;;6.33;59.49;100124.06;4912041;28;124478;-64
2021/12/09 00:59:52;;;;;;;9.77;3.50;;;;;;;6.32;59.37;100122.38;4912052;28;124237;-64
2021/12/09 01:02:19;;;;;;;6.28;2.95;;;;;;;6.30;59.40;100122.44;4913178;28;114088;-65
2021/12/09 01:04:47;;;;;;;6.88;2.97;;;;;;;6.31;59.57;100125.91;4919219;28;114372;-65
2021/12/09 01:07:15;;;;;;;7.78;2.67;;;;;;;6.30;59.33;100125.06;4905274;28;122925;-65
2021/12/09 01:09:42;;;;;;;6.55;2.65;;;;;;;6.30;59.38;100125.06;4914057;28;124220;-65
2021/12/09 01:12:10;;;;;;;6.50;2.70;;;;;;;6.29;59.64;100123.38;4926518;28;114276;-65
2021/12/09 01:14:37;;;;;;;5.15;2.63;;;;;;;6.28;59.43;100119.00;4915124;28;114457;-65
2021/12/09 01:17:07;;;;;;;5.85;2.70;;;;;;;6.28;59.50;100126.06;4918172;28;123765;-64
2021/12/09 01:19:35;;;;;;;6.88;2.88;;;;;;;6.28;59.97;100126.91;4919751;28;123898;-64
2021/12/09 01:22:03;;;;;;;6.57;3.40;;;;;;;6.29;59.63;100122.50;4917039;28;114985;-65
2021/12/09 01:24:30;;;;;;;8.82;2.85;;;;;;;6.29;59.53;100123.38;4915295;28;113774;-65
2021/12/09 01:26:58;;;;;;;5.93;2.85;;;;;;;6.28;59.70;100129.53;4913159;28;124952;-64
2021/12/09 01:29:36;;;;;;;6.60;3.00;;;;;;;6.30;59.61;100135.59;4916752;28;123801;-64
2021/12/09 01:32:06;;;;;;;7.07;2.97;;;;;;;6.30;59.63;100140.84;4927885;28;115110;-64
2021/12/09 01:34:37;;;;;;;6.85;2.60;;;;;;;6.30;59.97;100143.47;4914689;28;115573;-65
2021/12/09 01:37:05;;;;;;;5.70;2.42;;;;;;;6.31;59.58;100142.56;4912551;28;124158;-65
2021/12/09 01:39:33;;;;;;;5.47;2.72;;;;;;;6.30;59.53;100140.84;4912465;28;123676;-64
2021/12/09 01:42:01;;;;;;;5.68;2.50;;;;;;;6.31;59.96;100146.94;4915184;28;114811;-65
2021/12/09 01:44:28;;;;;;;6.10;2.60;;;;;;;6.31;59.70;100147.84;4915278;28;112974;-64
2021/12/09 01:46:56;;;;;;;5.85;2.75;;;;;;;6.32;59.68;100149.53;4913448;28;124030;-64
2021/12/09 01:49:23;;;;;;;7.00;2.80;;;;;;;6.32;60.03;100149.53;4911457;28;123845;-64
2021/12/09 01:51:51;;;;;;;8.48;2.45;;;;;;;6.32;59.72;100153.94;4910092;28;114580;-64
2021/12/09 01:54:23;;;;;;;6.18;2.70;;;;;;;6.31;59.99;100153.09;4913898;28;114056;-64
2021/12/09 01:56:50;;;;;;;8.35;2.72;;;;;;;6.32;59.78;100160.03;4933114;28;123612;-64
2021/12/09 01:59:17;;;;;;;10.10;2.95;;;;;;;6.31;60.02;100153.09;4913104;28;124528;-64
2021/12/09 02:01:44;;;;;;;8.70;2.85;;;;;;;6.31;59.92;100153.09;4912860;28;114138;-64
2021/12/09 02:04:13;;;;;;;5.47;2.70;;;;;;;6.31;59.86;100147.84;4926269;28;113820;-64
2021/12/09 02:06:41;;;;;;;5.55;2.65;;;;;;;6.31;59.64;100153.09;4913074;28;125037;-64
2021/12/09 02:09:13;;;;;;;11.68;2.95;;;;;;;6.30;59.64;100146.09;4912854;28;123910;-64
2021/12/09 02:11:41;;;;;;;8.82;3.13;;;;;;;6.29;59.74;100149.66;4912402;28;114679;-64
2021/12/09 02:14:08;;;;;;;5.95;2.53;;;;;;;6.29;60.06;100144.41;4916498;28;113821;-64
2021/12/09 02:16:36;;;;;;;7.60;2.58;;;;;;;6.30;59.98;100151.38;4911117;28;123818;-64
2021/12/09 02:19:04;;;;;;;4.75;2.40;;;;;;;6.30;59.68;100142.63;4911573;28;123813;-64
2021/12/09 02:21:34;;;;;;;6.47;2.50;;;;;;;6.30;60.04;100146.09;4910737;28;115356;-64
2021/12/09 02:24:10;;;;;;;7.00;2.70;;;;;;;6.29;59.63;100144.41;4926071;28;113965;-65
2021/12/09 02:26:40;;;;;;;5.75;2.50;;;;;;;6.29;59.88;100138.25;4925414;28;122897;-64
2021/12/09 02:29:09;;;;;;;7.45;2.78;;;;;;;6.28;59.86;100142.69;4916124;28;124314;-64
2021/12/09 02:31:39;;;;;;;5.75;2.60;;;;;;;6.26;59.65;100141.88;4913155;28;114425;-64
2021/12/09 02:34:07;;;;;;;8.45;2.78;;;;;;;6.26;59.55;100144.50;4914993;28;114537;-64
2021/12/09 02:36:38;;;;;;;4.38;2.50;;;;;;;6.24;59.59;100156.88;4914920;28;123827;-64
2021/12/09 02:39:08;;;;;;;4.53;2.50;;;;;;;6.23;59.97;100149.88;4912630;28;124366;-64
2021/12/09 02:41:37;;;;;;;8.18;2.55;;;;;;;6.23;60.02;100155.13;4929491;28;113056;-65
2021/12/09 02:44:06;;;;;;;7.95;2.53;;;;;;;6.22;59.80;100153.44;4915703;28;114172;-65
2021/12/09 02:46:37;;;;;;;8.10;2.67;;;;;;;6.22;59.58;100156.06;4911210;28;123933;-65
2021/12/09 02:49:16;;;;;;;8.40;2.70;;;;;;;6.20;59.68;100160.53;4929788;28;124333;-65
2021/12/09 02:51:45;;;;;;;7.43;2.50;;;;;;;6.18;59.52;100162.38;4912062;28;114263;-65
2021/12/09 02:54:16;;;;;;;8.50;2.65;;;;;;;6.17;59.92;100160.63;4910836;28;113842;-64
2021/12/09 02:56:46;;;;;;;5.53;2.40;;;;;;;6.15;59.63;100162.47;4911145;28;124499;-64
2021/12/09 02:59:13;;;;;;;7.47;2.80;;;;;;;6.15;59.77;100159.84;4911553;28;123678;-64
2021/12/09 03:01:54;;;;;;;5.95;2.40;;;;;;;6.14;59.50;100163.38;4914477;28;114393;-64
2021/12/09 03:04:21;;;;;;;8.45;2.60;;;;;;;6.12;59.98;100167.84;4913003;28;114380;-64
2021/12/09 03:06:50;;;;;;;8.13;2.53;;;;;;;6.09;59.66;100157.44;4912816;28;124402;-64
2021/12/09 03:09:18;;;;;;;7.97;2.35;;;;;;;6.08;59.62;100160.97;4911068;28;122841;-64
2021/12/09 03:11:53;;;;;;;9.68;2.45;;;;;;;6.06;59.94;100162.81;4913283;28;115419;-64
2021/12/09 03:14:23;;;;;;;5.63;2.63;;;;;;;6.04;59.81;100165.50;4914761;28;115250;-64
2021/12/09 03:16:51;;;;;;;6.68;2.70;;;;;;;6.03;59.59;100169.91;4912736;28;124062;-64
2021/12/09 03:19:19;;;;;;;6.20;2.50;;;;;;;6.01;59.58;100177.00;4914894;28;124150;-64
2021/12/09 03:21:47;;;;;;;5.38;2.38;;;;;;;6.00;59.62;100184.94;4909618;28;114290;-64
2021/12/09 03:24:18;;;;;;;5.70;2.47;;;;;;;5.96;59.71;100181.53;4911706;28;113756;-64
2021/12/09 03:26:50;;;;;;;8.05;2.65;;;;;;;5.95;59.67;100182.47;4911791;28;124762;-64
2021/12/09 03:29:19;;;;;;;9.40;2.53;;;;;;;5.94;59.66;100180.72;4910949;28;123121;-64
2021/12/09 03:31:49;;;;;;;6.55;2.42;;;;;;;5.92;60.00;100177.28;4925580;28;113185;-64
2021/12/09 03:34:18;;;;;;;6.43;2.20;;;;;;;5.93;59.96;100172.88;4909655;28;114048;-64
2021/12/09 03:36:48;;;;;;;7.53;2.25;;;;;;;5.92;59.74;100181.69;4918692;28;123819;-64
2021/12/09 03:39:18;;;;;;;11.35;2.47;;;;;;;5.90;59.96;100176.50;4913920;28;123943;-64
2021/12/09 03:41:48;;;;;;;5.07;2.40;;;;;;;5.91;59.71;100182.59;4909388;28;115073;-64
2021/12/09 03:44:16;;;;;;;7.13;2.40;;;;;;;5.88;59.88;100186.22;4910371;28;113164;-64
2021/12/09 03:46:44;;;;;;;5.63;2.30;;;;;;;5.88;59.86;100180.94;4927926;28;124430;-64
2021/12/09 03:49:11;;;;;;;8.80;2.33;;;;;;;5.86;59.96;100188.03;4916166;28;123603;-64
2021/12/09 03:51:39;;;;;;;4.20;2.20;;;;;;;5.85;60.02;100191.56;4909469;28;115527;-64
2021/12/09 03:54:07;;;;;;;5.07;2.15;;;;;;;5.84;60.02;100189.88;4912429;28;114541;-64
2021/12/09 03:56:36;;;;;;;6.70;2.40;;;;;;;5.83;59.58;100199.50;4912249;28;123885;-64
2021/12/09 03:59:06;;;;;;;6.47;2.20;;;;;;;5.81;59.85;100203.94;4910078;28;123830;-64
2021/12/09 04:01:35;;;;;;;5.60;2.40;;;;;;;5.81;59.70;100200.47;4910969;28;115394;-64
2021/12/09 04:04:02;;;;;;;6.55;2.00;;;;;;;5.78;59.81;100196.19;4909346;28;114940;-64
2021/12/09 04:06:30;;;;;;;6.88;2.17;;;;;;;5.78;59.74;100195.31;4914412;28;123921;-65
2021/12/09 04:08:58;;;;;;;5.95;2.22;;;;;;;5.77;59.98;100194.47;4908837;28;124868;-64
2021/12/09 04:11:26;;;;;;;6.13;2.40;;;;;;;5.76;59.98;100191.88;4914299;28;114451;-65
2021/12/09 04:13:59;;;;;;;4.00;1.88;;;;;;;5.74;60.07;100191.94;4911410;28;114290;-64
2021/12/09 04:16:28;;;;;;;6.22;2.13;;;;;;;5.74;60.02;100191.94;4922300;28;123904;-64
2021/12/09 04:18:55;;;;;;;5.93;2.40;;;;;;;5.73;59.90;100186.75;4912141;28;124024;-65
2021/12/09 04:21:23;;;;;;;6.57;2.20;;;;;;;5.72;59.96;100195.53;4911975;28;114078;-64
2021/12/09 04:23:50;;;;;;;6.35;2.00;;;;;;;5.71;60.02;100201.69;4913772;28;112937;-64
2021/12/09 04:26:18;;;;;;;6.63;2.20;;;;;;;5.71;59.96;100204.31;4913578;28;123629;-64
2021/12/09 04:28:45;;;;;;;7.57;2.13;;;;;;;5.69;60.08;100200.91;4927119;28;124369;-64
2021/12/09 04:31:14;;;;;;;9.48;2.50;;;;;;;5.69;60.17;100200.91;4914577;28;114560;-64
2021/12/09 04:33:43;;;;;;;6.30;1.98;;;;;;;5.69;59.97;100206.16;4912460;28;113780;-64
2021/12/09 04:36:10;;;;;;;5.00;2.17;;;;;;;5.67;60.14;100198.34;4915159;28;123865;-64
2021/12/09 04:38:37;;;;;;;3.75;1.77;;;;;;;5.66;59.97;100197.47;4913231;28;123855;-64
2021/12/09 04:41:05;;;;;;;7.10;2.58;;;;;;;5.66;60.09;100196.63;4918392;28;114085;-64
2021/12/09 04:43:35;;;;;;;7.22;2.03;;;;;;;5.65;59.95;100190.50;4920303;28;114100;-64
2021/12/09 04:46:02;;;;;;;5.57;1.83;;;;;;;5.64;59.92;100191.41;4925123;28;124716;-64
2021/12/09 04:48:29;;;;;;;6.85;2.00;;;;;;;5.63;59.96;100197.59;4919770;28;124690;-64
2021/12/09 04:50:57;;;;;;;4.88;2.03;;;;;;;5.63;60.28;100213.34;4920016;28;114493;-64
2021/12/09 04:53:24;;;;;;;6.38;2.25;;;;;;;5.62;59.89;100211.63;4919028;28;114677;-64
2021/12/09 04:55:51;;;;;;;5.75;1.98;;;;;;;5.61;59.82;100214.31;4913305;28;124353;-64
2021/12/09 04:58:18;;;;;;;5.13;2.03;;;;;;;5.60;60.05;100221.34;4918952;28;123995;-64
2021/12/09 05:00:48;;;;;;;6.43;2.03;;;;;;;5.59;60.10;100206.47;4913771;28;114393;-64
2021/12/09 05:03:16;;;;;;;5.82;2.05;;;;;;;5.58;60.26;100210.03;4916974;28;114265;-64
2021/12/09 05:05:51;;;;;;;6.15;1.90;;;;;;;5.57;60.18;100218.78;4927445;28;124934;-64
2021/12/09 05:08:23;;;;;;;7.00;2.03;;;;;;;5.58;60.32;100214.44;4911792;28;124089;-64
2021/12/09 05:11:14;;;;;;;7.32;2.08;;;;;;;5.58;60.01;100210.03;4916326;28;114251;-64
2021/12/09 05:13:41;;;;;;;4.25;1.73;;;;;;;5.56;60.30;100217.09;4911779;28;113807;-64
2021/12/09 05:16:10;;;;;;;6.03;1.70;;;;;;;5.56;60.18;100217.09;4911016;28;124121;-63
2021/12/09 05:18:40;;;;;;;4.90;1.90;;;;;;;5.56;60.12;100219.72;4915457;28;123539;-64
2021/12/09 05:21:10;;;;;;;6.78;2.03;;;;;;;5.57;60.05;100217.94;4915960;28;113995;-64
2021/12/09 05:23:39;;;;;;;4.93;1.85;;;;;;;5.54;60.10;100213.66;4928532;28;113873;-64
2021/12/09 05:26:08;;;;;;;3.67;1.80;;;;;;;5.55;60.36;100215.38;4913507;28;124386;-64
2021/12/09 05:28:52;;;;;;;4.57;1.90;;;;;;;5.55;60.19;100210.13;4916493;28;123705;-64
2021/12/09 05:34:05;;;;;;;;;;;;;;;5.51;60.23;100224.28;4914548;28;114565;-64
2021/12/09 05:36:32;;;;;;;6.80;1.90;;;;;;;5.50;60.01;100222.56;4911534;28;124776;-64
2021/12/09 05:38:59;;;;;;;4.57;1.80;;;;;;;5.50;60.04;100227.81;4933350;28;123704;-64
2021/12/09 05:41:27;;;;;;;4.82;1.95;;;;;;;5.50;60.29;100238.31;4913108;28;115379;-64
2021/12/09 05:43:54;;;;;;;4.13;1.90;;;;;;;5.47;60.29;100238.41;4916160;28;115373;-64
2021/12/09 05:46:22;;;;;;;7.32;1.88;;;;;;;5.47;60.30;100238.41;4925792;28;123850;-64
2021/12/09 05:48:50;;;;;;;7.22;1.90;;;;;;;5.47;60.29;100236.66;4930822;28;122842;-64
2021/12/09 05:51:17;;;;;;;5.38;1.80;;;;;;;5.48;60.02;100242.75;4930845;28;113177;-64
2021/12/09 05:53:44;;;;;;;6.93;1.90;;;;;;;5.48;60.21;100234.88;4912255;28;113176;-64
2021/12/09 05:56:12;;;;;;;6.75;1.73;;;;;;;5.48;60.17;100240.13;4917777;28;123678;-64
2021/12/09 05:58:39;;;;;;;5.47;1.65;;;;;;;5.50;60.36;100242.69;4925814;28;124565;-64
2021/12/09 06:01:07;;;;;;;10.05;2.30;;;;;;;5.49;60.25;100236.59;4912471;28;114354;-64
2021/12/09 06:03:34;;;;;;;6.05;1.70;;;;;;;5.47;60.45;100235.78;4913484;28;113905;-64
2021/12/09 06:06:06;;;;;;;6.15;2.00;;;;;;;5.46;60.34;100236.69;4923595;28;124378;-64
2021/12/09 06:08:36;;;;;;;4.85;2.17;;;;;;;5.45;60.40;100235.00;4910513;28;124499;-64
2021/12/09 06:11:09;;;;;;;5.95;1.60;;;;;;;5.44;60.35;100239.41;4914374;28;114308;-64
2021/12/09 06:13:38;;;;;;;3.85;1.63;;;;;;;5.44;60.42;100239.41;4916025;28;114084;-64
2021/12/09 06:16:07;;;;;;;6.18;1.77;;;;;;;5.43;60.30;100247.31;4923557;28;123852;-64
2021/12/09 06:18:35;;;;;;;5.93;1.75;;;;;;;5.43;60.55;100247.31;4911309;28;123692;-64
2021/12/09 06:21:03;;;;;;;4.53;1.70;;;;;;;5.43;60.32;100257.81;4909987;28;114737;-64
2021/12/09 06:23:30;;;;;;;6.25;1.90;;;;;;;5.45;60.34;100261.25;4928423;28;113041;-64
2021/12/09 06:25:58;;;;;;;5.70;2.28;;;;;;;5.44;60.24;100249.91;4923640;28;123184;-64
2021/12/09 06:28:26;;;;;;;3.63;1.63;;;;;;;5.45;60.45;100256.00;4921254;28;123269;-64
2021/12/09 06:30:53;;;;;;;6.20;1.90;;;;;;;5.44;60.30;100249.91;4912787;28;115344;-64
2021/12/09 06:33:20;;;;;;;9.15;1.95;;;;;;;5.45;60.72;100245.50;4917151;28;114736;-64
2021/12/09 06:35:47;;;;;;;6.35;1.95;;;;;;;5.46;60.48;100247.19;4915872;28;124904;-64
2021/12/09 06:38:16;;;;;;;5.20;1.83;;;;;;;5.49;60.61;100252.34;4917444;28;124091;-64
2021/12/09 06:40:45;;;;;;;10.73;1.77;;;;;;;5.49;60.61;100252.34;4914209;28;114042;-64
2021/12/09 06:43:12;;;;;;;5.53;2.03;;;;;;;5.50;60.62;100254.09;4918496;28;113800;-64
2021/12/09 06:45:40;;;;;;;4.47;1.70;;;;;;;5.51;60.63;100255.78;4913778;28;124635;-64
2021/12/09 06:48:08;;;;;;;7.15;1.88;;;;;;;5.52;60.62;100257.53;4917305;28;123658;-64
2021/12/09 06:50:36;;;;;;;5.82;1.90;;;;;;;5.51;60.90;100258.41;4916807;28;114176;-64
2021/12/09 06:53:04;;;;;;;5.70;2.10;;;;;;;5.52;60.76;100260.16;4914124;28;114166;-64
2021/12/09 06:55:32;;;;;;;5.80;2.00;;;;;;;5.53;60.78;100264.47;4915794;28;123829;-64
2021/12/09 06:57:59;;;;;;;6.00;1.90;;;;;;;5.54;60.73;100266.19;4910635;28;124150;-64
2021/12/09 07:00:30;;;;;;;6.47;2.10;;;;;;;5.54;60.60;100255.69;4913327;28;114317;-64
2021/12/09 07:02:57;;;;;;;5.05;2.20;;;;;;;5.55;60.47;100267.91;4911343;28;114375;-64
2021/12/09 07:05:27;;;;;;;5.93;1.80;;;;;;;5.55;60.57;100278.41;4929875;28;124637;-64
2021/12/09 07:07:54;;;;;;;3.80;1.80;;;;;;;5.54;60.51;100276.72;4927018;28;123435;-64
2021/12/09 07:10:22;;;;;;;5.95;2.05;;;;;;;5.55;60.44;100275.78;4909603;28;114806;-64
2021/12/09 07:12:50;;;;;;;7.57;2.47;;;;;;;5.56;60.42;100269.63;4927133;28;113646;-64
2021/12/09 07:15:17;;;;;;;6.63;1.67;;;;;;;5.56;60.69;100272.25;4908613;28;123990;-64
2021/12/09 07:17:45;;;;;;;7.68;2.10;;;;;;;5.56;60.49;100264.38;4911313;28;124348;-64
2021/12/09 07:20:15;;;;;;;3.92;1.73;;;;;;;5.57;60.71;100271.34;4917074;28;116547;-64
2021/12/09 07:22:45;;;;;;;4.05;1.77;;;;;;;5.57;60.59;100271.34;4928515;28;114290;-63
2021/12/09 07:25:12;;;;;;;6.07;1.92;;;;;;;5.57;60.57;100271.34;4909193;28;124783;-63
2021/12/09 07:27:39;;;;;;;6.20;2.22;;;;;;;5.56;60.60;100274.88;4910724;28;123001;-63
2021/12/09 07:30:09;;;;;;;5.40;1.92;;;;;;;5.55;60.55;100278.41;4916257;28;113263;-63
2021/12/09 07:32:36;;;;;;;4.93;2.30;;;;;;;5.55;60.43;100278.41;4916730;28;113806;-63
2021/12/09 07:35:06;;;;;;;8.18;2.22;;;;;;;5.55;60.67;100281.03;4911713;28;123829;-63
2021/12/09 07:37:37;;;;;;;6.70;2.15;;;;;;;5.55;60.78;100286.28;4915733;28;123644;-63
2021/12/09 07:40:11;;;;;;;7.68;2.35;;;;;;;5.55;60.57;100283.66;4910127;28;114777;-63
2021/12/09 07:42:38;;;;;;;5.32;1.75;;;;;;;5.56;60.74;100290.66;4911298;28;114060;-63
2021/12/09 07:45:09;;;;;;;5.03;2.08;;;;;;;5.57;60.82;100297.59;4913469;28;123830;-63
2021/12/09 07:47:36;;;;;;;6.53;2.17;;;;;;;5.57;60.75;100292.34;4917325;28;123670;-63
2021/12/09 07:50:07;;;;;;;3.78;1.92;;;;;;;5.58;60.64;100294.06;4917278;28;114671;-63
2021/12/09 07:52:34;;;;;;;5.43;2.00;;;;;;;5.58;60.84;100288.81;4914510;28;113800;-63
2021/12/09 07:55:03;;;;;;;5.07;2.00;;;;;;;5.58;60.71;100291.44;4916580;28;124410;-63
2021/12/09 07:57:33;;;;;;;6.05;2.20;;;;;;;5.59;60.74;100285.28;4917248;28;124231;-63
2021/12/09 08:00:00;;;;;;;5.30;2.47;;;;;;;5.60;60.82;100287.00;4912221;28;114611;-63
2021/12/09 08:02:42;;;;;;;6.22;2.40;;;;;;;5.62;60.82;100282.56;4918710;28;114605;-63
2021/12/09 08:05:12;;;;;;;7.22;2.03;;;;;;;5.62;60.79;100279.94;4916548;28;122969;-63
2021/12/09 08:07:41;;;;;;;4.93;2.08;;;;;;;5.64;60.98;100279.88;4914110;28;126030;-63
2021/12/09 08:10:11;;;;;;;8.13;2.30;;;;;;;5.66;61.02;100276.28;4928334;28;115529;-63
2021/12/09 08:12:39;;;;;;;4.57;2.15;;;;;;;5.66;60.91;100281.53;4916755;28;114754;-63
2021/12/09 08:15:25;;;;;;;4.03;2.00;;;;;;;5.70;61.02;100281.44;4922784;28;122665;-63
2021/12/09 08:18:02;;;;;;;5.72;2.13;;;;;;;5.71;61.02;100285.78;4925374;28;124072;-63
2021/12/09 08:20:33;;;;;;;5.43;2.10;;;;;;;5.73;60.86;100291.84;4915559;28;114114;-63
2021/12/09 08:23:00;;;;;;;6.72;2.20;;;;;;;5.75;60.98;100290.03;4917366;28;113857;-63
2021/12/09 08:25:28;;;;;;;8.38;2.20;;;;;;;5.76;61.00;100287.31;4927818;28;124048;-63
2021/12/09 08:27:55;;;;;;;5.32;2.00;;;;;;;5.80;61.04;100301.22;4913374;28;124151;-63
2021/12/09 08:30:25;;;;;;;6.07;2.03;;;;;;;5.82;60.87;100302.03;4913634;28;114292;-64
2021/12/09 08:33:12;;;;;;;7.70;2.55;;;;;;;5.83;60.77;100299.34;4917232;28;114446;-64
2021/12/09 08:35:39;;;;;;;5.50;2.50;;;;;;;5.85;60.84;100296.69;4917526;28;123986;-64
2021/12/09 08:38:07;;;;;;;6.97;2.20;;;;;;;5.88;61.03;100299.22;4914916;28;124320;-63
2021/12/09 08:40:35;;;;;;;8.45;2.30;;;;;;;5.90;61.15;100300.00;4918361;28;114984;-64
2021/12/09 08:43:03;;;;;;;7.35;2.10;;;;;;;5.93;60.88;100302.50;4918811;28;112811;-64
2021/12/09 08:45:31;;;;;;;9.13;2.40;;;;;;;5.96;61.11;100301.59;4927773;28;122810;-63
2021/12/09 08:47:58;;;;;;;9.18;2.45;;;;;;;6.00;61.03;100306.69;4926710;28;123628;-64
2021/12/09 08:50:32;;;;;;;8.63;2.47;;;;;;;6.03;61.08;100301.34;4912906;28;114162;-64
2021/12/09 08:53:07;;;;;;;9.23;2.50;;;;;;;6.07;61.06;100306.50;4914990;28;114055;-64
2021/12/09 08:55:36;;;;;;;7.68;2.75;;;;;;;6.11;60.83;100308.09;4913723;28;124474;-64
2021/12/09 08:58:04;;;;;;;6.03;2.35;;;;;;;6.15;61.31;100302.66;4918036;28;123571;-64
2021/12/09 09:00:33;;;;;;;7.30;2.60;;;;;;;6.21;60.88;100304.22;4913350;28;115053;-64
2021/12/09 09:03:01;;;;;;;7.93;2.55;;;;;;;6.24;60.95;100294.44;4921364;28;115186;-65
2021/12/09 09:05:30;;;;;;;5.50;2.58;;;;;;;6.29;61.27;100301.31;4919769;28;124072;-64
2021/12/09 09:07:57;;;;;;;8.73;3.00;;;;;;;6.33;61.15;100308.16;4920626;28;123247;-64
2021/12/09 09:10:27;;;;;;;7.65;2.60;;;;;;;6.38;61.05;100316.75;4913749;28;114671;-64
2021/12/09 09:12:55;;;;;;;4.93;2.78;;;;;;;6.43;61.02;100320.94;4915736;28;113717;-64
2021/12/09 09:15:24;;;;;;;11.55;2.60;;;;;;;6.51;61.15;100317.19;4911662;28;124622;-64
2021/12/09 09:17:52;;;;;;;7.85;3.00;;;;;;;6.59;61.51;100317.75;4912916;28;124011;-64
2021/12/09 09:20:22;;;;;;;9.00;2.90;;;;;;;6.64;61.12;100321.06;4912588;28;114363;-64
2021/12/09 09:22:50;;;;;;;9.23;3.05;;;;;;;6.70;61.01;100318.19;4921452;28;114028;-64
2021/12/09 09:25:22;;;;;;;9.95;2.80;;;;;;;6.76;61.28;100323.25;4915834;28;124942;-64
2021/12/09 09:27:49;;;;;;;5.53;2.22;;;;;;;6.81;60.95;100321.28;4918119;28;123291;-64
2021/12/09 09:30:19;;;;;;;7.32;2.88;;;;;;;6.88;60.97;100321.91;4914214;28;115331;-64
2021/12/09 09:32:47;;;;;;;8.30;3.05;;;;;;;6.95;60.99;100322.53;4916021;28;114248;-64
2021/12/09 09:35:16;;;;;;;5.68;3.00;;;;;;;7.01;61.09;100322.31;4930652;28;124491;-64
2021/12/09 09:37:45;;;;;;;11.38;2.90;;;;;;;7.07;61.00;100327.34;4927915;28;122811;-64
2021/12/09 09:40:16;;;;;;;7.07;2.90;;;;;;;7.13;61.08;100320.97;4912286;28;114299;-64
2021/12/09 09:42:57;;;;;;;7.78;3.28;;;;;;;7.17;61.08;100323.41;4913855;28;114347;-64
2021/12/09 09:45:26;;;;;;;8.45;3.42;;;;;;;7.24;60.81;100323.19;4915131;28;123794;-64
2021/12/09 09:47:53;;;;;;;6.28;2.60;;;;;;;7.28;61.14;100319.50;4913836;28;123927;-64
2021/12/09 09:50:21;;;;;;;6.03;3.00;;;;;;;7.34;61.26;100319.25;4919698;28;115497;-64
2021/12/09 09:52:48;;;;;;;10.55;3.08;;;;;;;7.39;60.94;100327.84;4915787;28;115263;-64
2021/12/09 09:55:20;;;;;;;7.70;3.00;;;;;;;7.45;60.96;100321.47;4912276;28;124640;-64
2021/12/09 09:57:50;;;;;;;6.95;2.60;;;;;;;7.49;60.97;100334.44;4912810;28;123759;-64
2021/12/09 10:00:21;;;;;;;6.63;3.22;;;;;;;7.52;60.81;100329.06;4914817;28;114520;-64
2021/12/09 10:02:53;;;;;;;6.72;2.83;;;;;;;7.54;60.80;100321.94;4940199;28;113986;-64
2021/12/09 10:05:28;;;;;;;7.60;2.78;;;;;;;7.58;60.71;100318.25;4925268;28;125266;-64
2021/12/09 10:07:55;;;;;;;5.50;2.60;;;;;;;7.61;60.96;100322.56;4952015;28;123737;-64
2021/12/09 10:10:23;;;;;;;9.38;3.10;;;;;;;7.65;60.54;100312.72;4939700;28;114778;-64
2021/12/09 10:12:55;;;;;;;8.10;2.90;;;;;;;7.69;60.70;100319.63;4932131;28;114313;-64
2021/12/09 10:15:39;;;;;;;6.80;2.92;;;;;;;7.71;60.65;100317.75;4932634;28;124632;-64
2021/12/09 10:18:07;;;;;;;5.75;3.13;;;;;;;7.72;60.46;100311.56;4920673;28;123733;-64
2021/12/09 10:20:47;;;;;;;7.85;2.88;;;;;;;7.74;60.76;100309.72;4914166;28;114649;-64
2021/12/09 10:23:59;;;;;;;7.45;2.88;;;;;;;7.75;60.56;100300.91;4916734;28;114317;-64
2021/12/09 10:26:29;;;;;;;7.85;3.08;;;;;;;7.79;60.99;100313.88;4911537;28;124041;-64
2021/12/09 10:29:18;;;;;;;6.22;3.08;;;;;;;7.82;60.60;100305.00;4910260;28;123804;-64
2021/12/09 10:31:54;;;;;;;7.28;2.85;;;;;;;7.87;60.64;100313.53;4904764;28;114681;-64
2021/12/09 10:34:40;;;;;;;8.60;3.33;;;;;;;7.90;60.74;100305.50;4929359;28;113719;-64
2021/12/09 10:37:31;;;;;;;6.65;2.97;;;;;;;7.93;60.77;100313.31;4912341;28;124068;-64
2021/12/09 10:40:15;;;;;;;5.55;3.13;;;;;;;7.96;60.79;100313.16;4905503;28;124029;-64
2021/12/09 10:42:49;;;;;;;6.85;2.83;;;;;;;7.98;60.52;100311.31;4912730;28;115331;-64
2021/12/09 10:45:21;;;;;;;6.00;2.70;;;;;;;8.01;60.43;100309.50;4912336;28;114921;-64
2021/12/09 10:48:01;;;;;;;5.95;2.90;;;;;;;8.02;60.20;100305.91;4912601;28;123785;-64
2021/12/09 10:50:39;;;;;;;6.85;3.00;;;;;;;8.04;60.45;100309.34;4912756;28;123730;-64
2021/12/09 10:56:13;;;;;;;8.50;3.15;;;;;;;8.07;60.62;100304.78;4911985;28;114294;-64
2021/12/09 10:58:46;;;;;;;8.63;3.40;;;;;;;8.10;60.36;100312.56;4913005;28;124310;-64
2021/12/09 11:01:17;;;;;;;6.93;3.03;;;;;;;8.13;60.57;100304.50;4913059;28;123597;-64
2021/12/09 11:03:54;;;;;;;6.40;3.10;;;;;;;8.17;60.45;100299.97;4911423;28;114296;-64
2021/12/09 11:06:32;;;;;;;13.23;3.53;;;;;;;8.20;60.18;100310.38;4910981;28;114135;-65
2021/12/09 11:09:03;;;;;;;4.97;3.28;;;;;;;8.23;60.40;100294.44;4911181;28;122532;-64
2021/12/09 11:11:33;;;;;;;7.60;3.28;;;;;;;8.26;60.49;100294.28;4912121;28;123959;-64
2021/12/09 11:14:03;;;;;;;6.25;3.17;;;;;;;8.29;60.20;100298.59;4911236;28;114582;-64
2021/12/09 11:16:46;;;;;;;8.75;3.30;;;;;;;8.29;60.39;100294.16;4928294;28;113273;-64
2021/12/09 11:19:26;;;;;;;5.95;3.03;;;;;;;8.30;59.99;100301.13;4912444;28;124034;-64
2021/12/09 11:22:00;;;;;;;7.82;3.45;;;;;;;8.32;60.16;100294.00;4927612;28;123823;-64
2021/12/09 11:24:32;;;;;;;7.18;3.42;;;;;;;8.33;60.21;100298.38;4911167;28;114388;-64
2021/12/09 11:27:11;;;;;;;6.07;3.20;;;;;;;8.34;60.12;100297.47;4912683;28;113963;-64
2021/12/09 11:29:41;;;;;;;6.85;3.25;;;;;;;8.36;60.00;100290.31;4912103;28;124100;-64
2021/12/09 11:32:27;;;;;;;9.85;3.30;;;;;;;8.37;60.54;100292.03;4922212;28;123796;-64
2021/12/09 11:40:26;;;;;;;6.85;3.53;;;;;;;8.38;59.72;100299.03;4919440;28;124257;-64
2021/12/09 11:42:59;;;;;;;8.80;3.45;;;;;;;8.38;60.13;100293.75;4921070;28;123932;-64
2021/12/09 11:45:44;;;;;;;8.73;3.00;;;;;;;8.36;59.95;100290.31;4915996;28;114905;-64
2021/12/09 11:48:12;;;;;;;7.53;3.50;;;;;;;8.37;59.87;100289.38;4926543;28;114104;-64